Time;durP1;ratioP1;P1;durP2;ratioP2;P2;SDS_P1;SDS_P2;PMS_P1;PMS_P2;Temp;Humidity;BMP_temperature;BMP_pressure;BME280_temperature;BME280_humidity;BME280_pressure;Samples;Min_cycle;Max_cycle;Signal;HPM_P1;HPM_P2
2022/03/22 00:00:20;;;;;;;;;15.00;13.75;;;;;16.80;43.39;102187.16;2104459;28;47490;-61
2022/03/22 00:01:21;;;;;;;;;19.80;18.20;;;;;16.78;43.30;102181.81;2095318;28;47893;-61
2022/03/22 00:02:23;;;;;;;;;17.60;15.40;;;;;16.77;43.35;102178.25;2095650;28;47738;-62
2022/03/22 00:03:25;;;;;;;;;15.60;14.20;;;;;16.74;43.20;102180.13;2096159;28;47568;-62
2022/03/22 00:04:25;;;;;;;;;17.00;16.00;;;;;16.75;43.01;102182.75;2100166;28;48126;-62
2022/03/22 00:05:26;;;;;;;;;19.25;17.00;;;;;16.74;43.16;102185.47;2103474;27;47671;-61
2022/03/22 00:06:26;;;;;;;;;17.75;17.00;;;;;16.73;43.23;102181.03;2086371;28;47739;-62
2022/03/22 00:07:27;;;;;;;;;17.75;15.75;;;;;16.72;42.75;102185.50;2085984;28;47516;-62
2022/03/22 00:08:27;;;;;;;;;17.75;14.25;;;;;16.70;43.04;102184.69;2104620;28;47548;-62
2022/03/22 00:09:28;;;;;;;;;16.25;15.50;;;;;16.69;42.76;102180.25;2104331;28;47485;-60
2022/03/22 00:10:29;;;;;;;;;18.00;17.25;;;;;16.67;43.32;102190.13;2103200;27;47645;-61
2022/03/22 00:11:30;;;;;;;;;15.40;12.80;;;;;16.68;42.87;102185.63;2104514;27;47788;-63
2022/03/22 00:12:31;;;;;;;;;16.50;16.50;;;;;16.67;43.01;102189.19;2104232;28;48044;-62
2022/03/22 00:13:33;;;;;;;;;18.20;17.80;;;;;16.67;42.80;102191.88;2104089;28;46623;-62
2022/03/22 00:14:33;;;;;;;;;18.60;18.20;;;;;16.66;42.86;102193.69;2104372;28;48323;-61
2022/03/22 00:15:34;;;;;;;;;11.75;11.75;;;;;16.65;43.23;102191.91;2104363;28;47619;-61
2022/03/22 00:16:36;;;;;;;;;17.80;16.00;;;;;16.66;43.03;102187.44;2104522;28;45512;-59
2022/03/22 00:17:38;;;;;;;;;13.00;12.80;;;;;16.66;42.82;102187.44;2104018;28;48167;-61
2022/03/22 00:18:39;;;;;;;;;15.80;15.80;;;;;16.65;43.28;102191.03;2104270;28;46640;-61
2022/03/22 00:19:39;;;;;;;;;15.40;15.40;;;;;16.65;43.46;102193.72;2104098;28;47878;-59
2022/03/22 00:20:42;;;;;;;;;16.25;16.25;;;;;16.64;43.18;102190.16;2104309;28;47839;-61
2022/03/22 00:21:42;;;;;;;;;18.20;17.60;;;;;16.63;43.13;102195.53;2104400;28;47747;-60
2022/03/22 00:22:43;;;;;;;;;15.75;15.75;;;;;16.63;43.79;102198.22;2103965;28;47925;-61
2022/03/22 00:23:44;;;;;;;;;15.00;15.00;;;;;16.62;43.23;102197.31;2104020;28;47246;-61
2022/03/22 00:24:44;;;;;;;;;14.25;14.25;;;;;16.63;43.38;102198.22;2104549;28;47554;-63
2022/03/22 00:25:45;;;;;;;;;15.00;15.00;;;;;16.61;43.12;102200.94;2103228;27;47525;-61
2022/03/22 00:26:46;;;;;;;;;15.60;15.00;;;;;16.61;42.76;102195.56;2099143;28;48090;-61
2022/03/22 00:27:53;;;;;;;;;19.25;16.50;;;;;16.61;43.08;102195.56;2100440;28;48026;-60
2022/03/22 00:28:54;;;;;;;;;16.80;16.80;;;;;16.61;43.49;102205.41;2103960;28;47754;-62
2022/03/22 00:29:54;;;;;;;;;16.50;16.50;;;;;16.60;43.28;102201.84;2104536;28;47759;-62
2022/03/22 00:30:55;;;;;;;;;13.00;12.75;;;;;16.59;43.12;102200.09;2104911;28;45156;-61
2022/03/22 00:31:56;;;;;;;;;17.00;15.50;;;;;16.59;43.12;102204.56;2104314;28;47259;-62
2022/03/22 00:33:00;;;;;;;;;21.80;17.20;;;;;16.59;43.43;102204.56;2104073;28;47703;-62
2022/03/22 00:34:02;;;;;;;;;10.00;10.00;;;;;16.60;42.84;102203.66;2104581;28;48227;-62
2022/03/22 00:35:03;;;;;;;;;16.60;16.60;;;;;16.58;42.79;102200.13;2104554;28;47605;-62
2022/03/22 00:36:04;;;;;;;;;17.50;16.75;;;;;16.58;42.91;102197.44;2104209;28;48127;-61
2022/03/22 00:37:04;;;;;;;;;18.80;18.80;;;;;16.55;42.87;102203.78;2103834;28;47607;-60
2022/03/22 00:38:11;;;;;;;;;18.75;17.50;;;;;16.55;43.04;102205.56;2104226;28;47303;-62
2022/03/22 00:39:12;;;;;;;;;13.80;13.80;;;;;16.55;43.00;102210.94;2103870;28;47973;-62
2022/03/22 00:40:18;;;;;;;;;14.00;13.75;;;;;16.55;42.92;102206.44;2086285;28;46000;-61
2022/03/22 00:41:19;;;;;;;;;18.20;16.40;;;;;16.54;42.75;102204.69;2086394;28;48539;-61
2022/03/22 00:42:21;;;;;;;;;15.40;15.40;;;;;16.54;43.16;102207.38;2086509;28;47840;-62
2022/03/22 00:43:23;;;;;;;;;14.00;13.20;;;;;16.55;42.57;102214.50;2087254;28;47599;-62
2022/03/22 00:44:23;;;;;;;;;18.20;18.20;;;;;16.54;43.07;102212.72;2079252;28;48259;-61
2022/03/22 00:45:34;;;;;;;;;20.75;19.25;;;;;16.53;43.01;102213.66;2062821;28;47976;-60
2022/03/22 00:46:36;;;;;;;;;17.20;14.40;;;;;16.52;42.71;102214.56;2067084;28;47781;-62
2022/03/22 00:47:37;;;;;;;;;18.00;16.20;;;;;16.52;42.74;102209.22;2087755;28;47576;-62
2022/03/22 00:48:38;;;;;;;;;15.75;15.75;;;;;16.52;42.64;102211.00;2087899;28;47908;-61
2022/03/22 00:49:39;;;;;;;;;18.20;17.40;;;;;16.51;43.15;102209.22;2087565;28;47860;-62
2022/03/22 00:50:45;;;;;;;;;18.50;15.75;;;;;16.49;42.73;102201.22;2078850;28;47772;-62
2022/03/22 00:51:46;;;;;;;;;15.00;13.20;;;;;16.50;42.71;102208.34;2080248;28;48094;-60
2022/03/22 00:52:47;;;;;;;;;18.00;18.00;;;;;16.49;42.87;102215.50;2087777;28;47745;-61
2022/03/22 00:53:47;;;;;;;;;17.40;16.60;;;;;16.48;42.46;102210.16;2088021;28;48098;-59
2022/03/22 00:54:48;;;;;;;;;18.50;17.50;;;;;16.47;42.64;102208.41;2088063;28;47842;-60
2022/03/22 00:55:49;;;;;;;;;16.75;15.25;;;;;16.46;42.56;102212.00;2087845;28;47683;-59
2022/03/22 00:56:52;;;;;;;;;22.00;19.00;;;;;16.44;42.45;102203.13;2087790;28;47359;-59
2022/03/22 00:57:54;;;;;;;;;17.40;17.20;;;;;16.42;42.69;102202.28;2087777;28;47983;-61
2022/03/22 01:00:14;;;;;;;;;15.60;14.40;;;;;16.40;42.97;102210.34;2088000;28;47487;-62
2022/03/22 01:01:14;;;;;;;;;17.25;17.25;;;;;16.39;42.54;102200.56;2087214;28;47966;-59
2022/03/22 01:02:15;;;;;;;;;19.00;17.00;;;;;16.37;42.28;102202.34;2088025;28;48144;-60
2022/03/22 01:03:15;;;;;;;;;16.00;16.00;;;;;16.37;42.32;102201.47;2087735;28;47234;-60
2022/03/22 01:04:16;;;;;;;;;19.50;19.50;;;;;16.35;42.58;102206.88;2088066;28;47863;-60
2022/03/22 01:05:19;;;;;;;;;17.50;15.00;;;;;16.35;42.57;102200.63;2088061;28;46347;-61
2022/03/22 01:06:20;;;;;;;;;20.00;19.20;;;;;16.35;42.30;102208.69;2087399;28;48174;-61
2022/03/22 01:07:20;;;;;;;;;20.00;19.25;;;;;16.33;42.81;102208.72;2087479;28;47947;-61
2022/03/22 01:09:04;;;;;;;;;19.40;17.60;;;;;16.33;42.56;102206.03;2055324;28;45571;-53
2022/03/22 01:10:07;;;;;;;;;14.40;14.40;;;;;16.31;42.40;102201.63;2076542;28;47927;-60
2022/03/22 01:11:08;;;;;;;;;17.60;17.40;;;;;16.29;41.99;102200.78;2077704;28;47410;-60
2022/03/22 01:12:09;;;;;;;;;15.25;14.75;;;;;16.29;42.21;102211.50;2093467;28;47913;-61
2022/03/22 01:13:13;;;;;;;;;18.00;16.75;;;;;16.29;42.55;102200.78;2097044;28;48051;-61
2022/03/22 01:14:13;;;;;;;;;18.20;15.60;;;;;16.29;42.35;102203.47;2096782;28;47639;-61
2022/03/22 01:15:17;;;;;;;;;16.50;15.50;;;;;16.27;42.68;102205.31;2097130;28;47823;-61
2022/03/22 01:16:17;;;;;;;;;19.60;17.40;;;;;16.26;42.15;102204.44;2089012;28;47712;-61
2022/03/22 01:17:18;;;;;;;;;17.75;17.50;;;;;16.27;42.51;102203.50;2091975;28;47673;-62
2022/03/22 01:18:19;;;;;;;;;15.80;15.80;;;;;16.28;42.53;102202.59;2097098;28;48095;-61
2022/03/22 01:19:21;;;;;;;;;15.75;15.75;;;;;16.27;42.38;102200.81;2096895;28;47472;-62
2022/03/22 01:20:25;;;;;;;;;19.20;18.20;;;;;16.28;42.35;102199.91;2096887;28;47817;-58
2022/03/22 01:21:25;;;;;;;;;19.00;17.00;;;;;16.28;42.03;102199.03;2088498;28;47599;-61
2022/03/22 01:22:26;;;;;;;;;19.50;18.75;;;;;16.27;41.85;102200.81;2093971;28;47677;-61
2022/03/22 01:23:27;;;;;;;;;20.00;19.00;;;;;16.26;42.09;102196.38;2087151;28;48008;-60
2022/03/22 01:24:27;;;;;;;;;18.00;18.00;;;;;16.27;42.13;102199.94;2087282;28;47468;-60
2022/03/22 01:25:29;;;;;;;;;20.50;18.00;;;;;16.25;42.35;102197.28;2097124;28;48168;-60
2022/03/22 01:26:29;;;;;;;;;17.60;16.20;;;;;16.24;42.00;102195.50;2097064;28;46281;-60
2022/03/22 01:27:30;;;;;;;;;13.75;13.75;;;;;16.24;41.93;102203.53;2096853;28;47699;-62
2022/03/22 01:28:30;;;;;;;;;18.00;18.00;;;;;16.23;42.25;102199.09;2097081;28;47583;-62
2022/03/22 01:29:30;;;;;;;;;19.50;17.75;;;;;16.21;41.78;102200.06;2097275;28;47177;-61
2022/03/22 01:30:31;;;;;;;;;16.50;15.25;;;;;16.21;42.23;102198.25;2097271;28;47384;-61
2022/03/22 01:31:32;;;;;;;;;18.40;17.20;;;;;16.21;41.78;102194.72;2096527;28;47880;-61
2022/03/22 01:32:36;;;;;;;;;17.75;17.50;;;;;16.21;41.90;102194.72;2086957;28;47485;-62
2022/03/22 01:33:36;;;;;;;;;14.80;14.80;;;;;16.22;41.75;102193.78;2080003;28;47633;-62
2022/03/22 01:34:37;;;;;;;;;20.25;16.25;;;;;16.22;42.21;102201.81;2095708;28;47597;-61
2022/03/22 01:35:37;;;;;;;;;18.00;16.50;;;;;16.21;42.09;102194.72;2096837;28;47596;-61
2022/03/22 01:36:38;;;;;;;;;16.00;16.00;;;;;16.21;42.01;102195.59;2096499;28;47438;-60
2022/03/22 01:37:39;;;;;;;;;21.00;18.00;;;;;16.22;42.12;102196.47;2097045;28;48050;-62
2022/03/22 01:38:40;;;;;;;;;19.40;15.60;;;;;16.22;42.25;102193.78;2096972;28;48066;-60
2022/03/22 01:39:40;;;;;;;;;17.75;17.00;;;;;16.22;41.88;102196.47;2096814;28;48027;-60
2022/03/22 01:40:40;;;;;;;;;18.50;18.50;;;;;16.22;42.15;102194.66;2096780;28;47773;-61
2022/03/22 01:41:41;;;;;;;;;19.50;19.50;;;;;16.21;41.86;102197.38;2096430;28;47979;-61
2022/03/22 01:42:42;;;;;;;;;18.50;16.25;;;;;16.22;42.17;102199.16;2096640;28;47569;-61
2022/03/22 01:43:42;;;;;;;;;16.50;16.25;;;;;16.23;41.72;102195.53;2096779;28;48011;-60
2022/03/22 01:44:42;;;;;;;;;16.75;16.25;;;;;16.22;41.79;102191.09;2087445;28;47388;-61
2022/03/22 01:45:48;;;;;;;;;18.50;18.00;;;;;16.23;41.86;102195.53;2087172;28;46698;-61
2022/03/22 01:46:50;;;;;;;;;21.60;21.00;;;;;16.22;41.49;102197.34;2096567;28;46985;-60
2022/03/22 01:47:52;;;;;;;;;16.00;15.20;;;;;16.22;41.62;102197.34;2097005;28;47747;-61
2022/03/22 01:48:54;;;;;;;;;20.00;18.00;;;;;16.22;41.83;102196.47;2096599;28;47259;-61
2022/03/22 01:49:54;;;;;;;;;18.80;17.40;;;;;16.22;41.47;102199.16;2086924;28;48168;-61
2022/03/22 01:50:55;;;;;;;;;17.00;17.00;;;;;16.21;41.77;102206.31;2087241;28;47679;-61
2022/03/22 01:51:56;;;;;;;;;19.25;17.25;;;;;16.21;41.65;102197.38;2096546;28;47539;-61
2022/03/22 01:52:59;;;;;;;;;22.80;19.20;;;;;16.21;42.15;102203.63;2096103;28;46685;-60
2022/03/22 01:54:00;;;;;;;;;19.20;17.40;;;;;16.20;42.03;102201.84;2096972;28;47798;-60
2022/03/22 01:55:01;;;;;;;;;20.75;19.75;;;;;16.21;42.02;102202.75;2095770;28;47949;-62
2022/03/22 01:56:01;;;;;;;;;20.75;20.50;;;;;16.18;41.45;102201.00;2097014;28;48014;-61
2022/03/22 01:57:01;;;;;;;;;19.00;17.25;;;;;16.17;41.43;102199.25;2096717;28;47550;-60
2022/03/22 01:58:03;;;;;;;;;16.75;16.25;;;;;16.17;41.39;102197.44;2097091;28;47877;-62
2022/03/22 01:59:03;;;;;;;;;18.80;18.80;;;;;16.16;41.52;102194.81;2096126;28;47701;-61
2022/03/22 02:00:06;;;;;;;;;22.75;18.50;;;;;16.15;41.93;102195.72;2096453;28;46502;-61
2022/03/22 02:06:27;;;;;;;;;15.80;15.40;;;;;16.14;41.38;102188.63;2096938;28;47867;-59
2022/03/22 02:07:31;;;;;;;;;15.20;13.80;;;;;16.13;41.62;102192.19;2096898;28;47469;-61
2022/03/22 02:08:32;;;;;;;;;21.00;20.00;;;;;16.12;41.58;102193.09;2096725;28;47543;-62
2022/03/22 02:09:33;;;;;;;;;19.80;17.60;;;;;16.11;41.80;102189.53;2095558;28;47687;-60
2022/03/22 02:10:34;;;;;;;;;18.40;18.40;;;;;16.10;41.49;102193.13;2096139;28;48067;-62
2022/03/22 02:11:35;;;;;;;;;20.40;19.00;;;;;16.09;41.41;102194.03;2098529;28;47370;-62
2022/03/22 02:12:35;;;;;;;;;17.50;17.50;;;;;16.08;41.39;102192.28;2104161;27;47830;-61
2022/03/22 02:13:35;;;;;;;;;18.00;17.50;;;;;16.08;41.30;102194.09;2096244;28;47435;-62
2022/03/22 02:14:36;;;;;;;;;21.25;18.25;;;;;16.06;41.20;102188.75;2096259;28;46091;-61
2022/03/22 02:15:36;;;;;;;;;14.50;14.50;;;;;16.05;41.33;102184.31;2096523;28;47509;-62
2022/03/22 02:16:37;;;;;;;;;21.75;20.00;;;;;16.04;41.16;102187.03;2096277;28;47780;-61
2022/03/22 02:17:44;;;;;;;;;20.00;19.75;;;;;16.02;41.33;102194.22;2096821;28;47432;-62
2022/03/22 02:18:45;;;;;;;;;18.00;17.40;;;;;16.01;41.08;102188.00;2096598;28;47871;-61
2022/03/22 02:19:47;;;;;;;;;22.25;16.75;;;;;15.99;41.48;102181.75;2097045;28;47208;-61
2022/03/22 02:20:47;;;;;;;;;20.60;18.20;;;;;15.99;40.93;102181.75;2096962;28;48068;-58
2022/03/22 02:21:57;;;;;;;;;18.75;16.25;;;;;15.98;41.24;102187.16;2096448;28;47641;-60
2022/03/22 02:23:12;;;;;;;;;19.60;18.40;;;;;15.98;41.46;102188.03;2096090;28;48199;-61
2022/03/22 02:24:13;;;;;;;;;18.60;18.60;;;;;15.98;41.53;102190.72;2096536;28;48211;-62
2022/03/22 02:25:15;;;;;;;;;20.00;18.75;;;;;15.97;41.49;102191.63;2096303;28;47821;-59
2022/03/22 02:26:17;;;;;;;;;15.80;14.80;;;;;15.97;41.16;102194.28;2096164;28;47776;-61
2022/03/22 02:27:17;;;;;;;;;20.20;19.00;;;;;15.95;41.32;102187.22;2095427;28;47540;-60
2022/03/22 02:28:22;;;;;;;;;21.00;19.00;;;;;15.94;41.23;102197.03;2095216;28;47768;-61
2022/03/22 02:29:23;;;;;;;;;20.40;18.60;;;;;15.92;41.27;102193.53;2095709;28;47146;-60
2022/03/22 02:30:23;;;;;;;;;19.00;17.75;;;;;15.92;41.46;102195.31;2096294;28;47699;-60
2022/03/22 02:31:29;;;;;;;;;18.75;18.50;;;;;15.89;41.23;102191.78;2096637;28;47220;-60
2022/03/22 02:32:30;;;;;;;;;17.00;17.00;;;;;15.88;41.12;102192.72;2096248;28;47692;-61
2022/03/22 02:33:30;;;;;;;;;22.00;19.00;;;;;15.87;41.33;102185.56;2095845;28;47446;-61
2022/03/22 02:34:31;;;;;;;;;17.00;16.50;;;;;15.87;40.84;102190.03;2096413;28;47710;-59
2022/03/22 02:35:31;;;;;;;;;19.00;19.00;;;;;15.86;41.01;102183.81;2096334;28;46835;-61
2022/03/22 02:36:31;;;;;;;;;21.00;21.00;;;;;15.85;40.99;102187.41;2096484;28;47414;-61
2022/03/22 02:37:32;;;;;;;;;17.75;15.75;;;;;15.84;41.09;102190.09;2096305;28;47780;-62
2022/03/22 02:38:33;;;;;;;;;18.00;18.00;;;;;15.84;41.34;102190.09;2096263;28;47952;-61
2022/03/22 02:39:34;;;;;;;;;18.25;18.25;;;;;15.83;40.87;102185.66;2096248;28;47241;-60
2022/03/22 02:40:35;;;;;;;;;19.20;18.20;;;;;15.83;41.19;102185.66;2096616;28;47991;-61
2022/03/22 02:41:36;;;;;;;;;17.00;14.75;;;;;15.83;41.55;102191.03;2096560;28;47416;-61
2022/03/22 02:42:36;;;;;;;;;19.75;17.75;;;;;15.84;41.14;102195.47;2096362;28;47644;-59
2022/03/22 02:43:37;;;;;;;;;17.50;17.50;;;;;15.83;41.33;102197.25;2096526;28;47172;-62
2022/03/22 02:44:38;;;;;;;;;21.25;18.50;;;;;15.83;41.30;102185.66;2096830;28;47839;-59
2022/03/22 02:45:38;;;;;;;;;15.50;15.50;;;;;15.84;41.50;102187.44;2095108;28;47995;-60
2022/03/22 02:46:38;;;;;;;;;20.50;20.00;;;;;15.82;40.99;102190.13;2096595;28;46163;-60
2022/03/22 02:47:39;;;;;;;;;20.25;19.50;;;;;15.83;41.02;102191.91;2096557;28;47711;-61
2022/03/22 02:48:41;;;;;;;;;15.40;15.40;;;;;15.83;41.38;102188.34;2096259;28;47737;-61
2022/03/22 02:49:41;;;;;;;;;19.00;17.40;;;;;15.84;41.04;102190.09;2096105;28;47685;-61
2022/03/22 02:50:42;;;;;;;;;21.50;19.75;;;;;15.84;41.10;102192.78;2096260;28;47680;-62
2022/03/22 02:51:42;;;;;;;;;16.25;16.25;;;;;15.84;41.23;102193.66;2096322;28;47512;-62
2022/03/22 02:52:44;;;;;;;;;19.00;19.00;;;;;15.84;41.07;102187.44;2096648;28;48088;-61
2022/03/22 02:53:44;;;;;;;;;21.00;19.20;;;;;15.84;41.50;102191.00;2096329;28;47502;-60
2022/03/22 02:54:45;;;;;;;;;18.50;17.75;;;;;15.81;40.80;102185.69;2096372;28;47859;-62
2022/03/22 02:55:45;;;;;;;;;23.25;22.75;;;;;15.81;40.83;102190.19;2096486;28;47648;-60
2022/03/22 02:56:45;;;;;;;;;19.00;19.00;;;;;15.79;41.42;102187.53;2096835;28;47414;-62
2022/03/22 02:57:47;;;;;;;;;19.75;17.50;;;;;15.78;41.15;102195.59;2096528;28;47540;-61
2022/03/22 02:58:48;;;;;;;;;21.20;19.40;;;;;15.76;41.15;102190.28;2095883;28;48197;-61
2022/03/22 02:59:48;;;;;;;;;20.75;19.75;;;;;15.74;41.48;102183.16;2092143;28;47591;-62
2022/03/22 03:00:48;;;;;;;;;20.75;19.75;;;;;15.73;41.25;102186.75;2096913;28;47702;-61
2022/03/22 03:01:49;;;;;;;;;21.00;19.75;;;;;15.72;41.02;102193.91;2096392;28;47719;-61
2022/03/22 03:02:51;;;;;;;;;17.75;17.75;;;;;15.73;41.01;102197.47;2096456;28;47541;-61
2022/03/22 03:03:52;;;;;;;;;19.80;18.80;;;;;15.72;41.37;102199.25;2096201;28;47872;-61
2022/03/22 03:04:52;;;;;;;;;23.25;21.75;;;;;15.71;41.47;102196.63;2096629;28;47631;-61
2022/03/22 03:05:52;;;;;;;;;22.25;20.00;;;;;15.70;40.84;102197.53;2096251;28;47390;-61
2022/03/22 03:06:53;;;;;;;;;19.75;19.50;;;;;15.68;41.13;102192.22;2089061;28;48306;-61
2022/03/22 03:07:53;;;;;;;;;20.00;18.50;;;;;15.67;41.15;102194.91;2089281;28;47408;-62
2022/03/22 03:08:55;;;;;;;;;21.50;20.25;;;;;15.67;41.08;102203.84;2095978;28;47457;-61
2022/03/22 03:09:56;;;;;;;;;20.20;19.20;;;;;15.65;41.30;102202.97;2101866;28;46821;-61
2022/03/22 03:10:56;;;;;;;;;22.00;20.75;;;;;15.64;41.47;102198.53;2104708;28;47541;-61
2022/03/22 03:11:57;;;;;;;;;21.50;20.50;;;;;15.64;40.96;102203.91;2109773;27;47580;-60
2022/03/22 03:13:05;;;;;;;;;25.75;22.50;;;;;15.63;41.17;102204.81;2110095;27;47404;-60
2022/03/22 03:15:24;;;;;;;;;20.60;19.60;;;;;15.62;41.17;102195.00;2104596;28;48026;-60
2022/03/22 03:16:24;;;;;;;;;19.75;18.25;;;;;15.63;41.32;102199.47;2104658;28;47315;-60
2022/03/22 03:17:25;;;;;;;;;22.75;21.25;;;;;15.63;41.32;102206.59;2104812;28;47445;-60
2022/03/22 03:18:26;;;;;;;;;19.60;18.20;;;;;15.63;41.40;102209.28;2104538;28;47558;-61
2022/03/22 03:19:26;;;;;;;;;19.50;19.50;;;;;15.60;41.27;102196.81;2104888;28;47304;-60
2022/03/22 03:20:27;;;;;;;;;19.75;18.75;;;;;15.62;40.86;102202.13;2104276;28;47529;-60
2022/03/22 03:21:27;;;;;;;;;21.00;18.75;;;;;15.61;41.32;102201.25;2104838;28;47781;-61
2022/03/22 03:22:28;;;;;;;;;21.75;20.25;;;;;15.61;41.10;102203.94;2104566;28;47519;-61
2022/03/22 03:23:28;;;;;;;;;18.25;18.25;;;;;15.60;40.92;102205.72;2105120;28;48200;-62
2022/03/22 03:24:30;;;;;;;;;24.00;22.25;;;;;15.58;41.27;102199.50;2104225;28;47532;-60
2022/03/22 03:25:30;;;;;;;;;19.00;19.00;;;;;15.56;40.90;102201.31;2104804;28;47810;-61
2022/03/22 03:26:31;;;;;;;;;19.75;19.75;;;;;15.56;41.11;102197.75;2104898;28;47432;-61
2022/03/22 03:27:32;;;;;;;;;20.00;19.00;;;;;15.55;41.18;102198.69;2104997;28;47096;-61
2022/03/22 03:28:33;;;;;;;;;18.20;17.80;;;;;15.55;41.20;102210.25;2104719;28;47534;-61
2022/03/22 03:29:33;;;;;;;;;23.75;22.50;;;;;15.55;41.53;102204.03;2104398;28;47528;-62
2022/03/22 03:30:34;;;;;;;;;22.75;22.00;;;;;15.55;41.28;102206.69;2086545;28;48405;-62
2022/03/22 03:31:35;;;;;;;;;18.40;17.00;;;;;15.55;41.08;102212.94;2086429;28;47752;-61
2022/03/22 03:32:36;;;;;;;;;17.20;17.20;;;;;15.54;41.36;102205.81;2104430;28;48110;-60
2022/03/22 03:33:36;;;;;;;;;16.25;16.25;;;;;15.55;41.37;102207.59;2104435;28;47162;-60
2022/03/22 03:34:37;;;;;;;;;21.75;20.50;;;;;15.54;41.67;102211.19;2086188;28;45556;-60
2022/03/22 03:35:37;;;;;;;;;21.25;21.25;;;;;15.54;41.39;102207.63;2086289;28;47981;-62
2022/03/22 03:36:37;;;;;;;;;17.25;17.25;;;;;15.53;40.98;102209.41;2104504;28;47597;-62
2022/03/22 03:37:42;;;;;;;;;19.25;19.25;;;;;15.52;41.53;102209.44;2104649;28;47473;-62
2022/03/22 03:38:42;;;;;;;;;19.00;19.00;;;;;15.51;41.52;102208.56;2104662;28;47884;-61
2022/03/22 03:39:43;;;;;;;;;22.75;20.50;;;;;15.52;41.00;102204.09;2104327;28;48118;-61
2022/03/22 03:42:02;;;;;;;;;23.80;23.00;;;;;15.50;41.27;102204.13;2091821;28;47293;-60
2022/03/22 03:43:03;;;;;;;;;25.25;21.25;;;;;15.50;41.10;102205.88;2104880;28;47503;-62
2022/03/22 03:47:03;;;;;;;;;21.75;19.75;;;;;15.49;41.63;102214.81;2104342;28;47674;-60
2022/03/22 03:47:09;;;;;;;;;23.40;23.40;;;;;15.44;41.10;102208.69;2062840;28;48322;-61
2022/03/22 03:48:09;;;;;;;;;24.00;22.20;;;;;15.43;41.36;102209.59;2070401;28;47947;-59
2022/03/22 03:49:10;;;;;;;;;21.00;18.25;;;;;15.42;41.26;102210.50;2063937;28;47934;-62
2022/03/22 03:50:10;;;;;;;;;24.50;22.50;;;;;15.42;41.62;102213.19;2065113;28;47731;-61
2022/03/22 03:51:10;;;;;;;;;22.75;21.50;;;;;15.41;41.49;102206.97;2062327;28;48046;-59
2022/03/22 03:52:17;;;;;;;;;21.00;18.75;;;;;15.41;41.31;102206.97;2061840;28;48111;-61
2022/03/22 03:53:17;;;;;;;;;21.20;20.40;;;;;15.41;41.64;102214.09;2062097;28;47795;-61
2022/03/22 03:54:17;;;;;;;;;19.50;19.50;;;;;15.40;41.27;102215.00;2062040;28;47246;-59
2022/03/22 03:55:18;;;;;;;;;19.75;18.25;;;;;15.40;41.72;102209.66;2061996;28;47641;-61
2022/03/22 03:56:18;;;;;;;;;23.75;21.50;;;;;15.40;41.46;102212.34;2062170;28;47370;-60
2022/03/22 03:57:20;;;;;;;;;19.50;18.50;;;;;15.39;41.58;102211.47;2062256;28;47437;-61
2022/03/22 03:58:21;;;;;;;;;21.00;21.00;;;;;15.39;41.89;102213.25;2062069;28;48175;-59
2022/03/22 03:59:21;;;;;;;;;23.25;22.25;;;;;15.39;41.78;102218.59;2062340;28;46611;-59
2022/03/22 04:00:23;;;;;;;;;21.50;20.50;;;;;15.39;41.84;102218.59;2062419;28;47778;-61
2022/03/22 04:01:25;;;;;;;;;22.40;21.40;;;;;15.38;41.52;102217.72;2061901;28;47844;-60
2022/03/22 04:02:25;;;;;;;;;20.80;19.00;;;;;15.39;41.45;102218.59;2053577;28;47981;-60
2022/03/22 04:03:26;;;;;;;;;19.00;17.25;;;;;15.38;41.37;102215.03;2053740;28;47470;-60
2022/03/22 04:04:26;;;;;;;;;23.50;22.25;;;;;15.37;41.86;102215.94;2062118;28;48532;-60
2022/03/22 04:05:27;;;;;;;;;23.00;23.00;;;;;15.38;41.75;102223.06;2061175;28;46235;-61
2022/03/22 04:06:27;;;;;;;;;23.50;23.50;;;;;15.38;41.47;102227.53;2059078;28;47522;-61
2022/03/22 04:07:28;;;;;;;;;18.50;16.50;;;;;15.38;41.93;102225.75;2053875;28;46925;-61
2022/03/22 04:08:28;;;;;;;;;18.50;18.00;;;;;15.37;41.68;102221.28;2045165;28;47638;-60
2022/03/22 04:09:29;;;;;;;;;23.25;19.50;;;;;15.37;41.71;102225.75;2045382;28;47810;-60
2022/03/22 04:10:29;;;;;;;;;21.50;18.75;;;;;15.38;41.60;102228.41;2051926;28;48246;-62
2022/03/22 04:11:30;;;;;;;;;19.25;17.50;;;;;15.36;41.46;102222.19;2049564;28;47714;-60
2022/03/22 04:12:31;;;;;;;;;17.75;17.25;;;;;15.36;41.81;102227.53;2046063;28;47798;-62
2022/03/22 04:13:32;;;;;;;;;23.75;22.50;;;;;15.36;41.22;102223.97;2050166;28;48046;-61
2022/03/22 04:14:32;;;;;;;;;25.00;21.80;;;;;15.32;41.85;102229.38;2053733;28;47811;-62
2022/03/22 04:15:33;;;;;;;;;22.00;21.25;;;;;15.31;41.54;102229.44;2052320;28;47757;-62
2022/03/22 04:16:34;;;;;;;;;23.50;23.50;;;;;15.32;41.76;102231.19;2037466;28;47897;-61
2022/03/22 04:17:34;;;;;;;;;22.25;20.50;;;;;15.31;41.86;102226.75;2037991;28;46847;-62
2022/03/22 04:18:34;;;;;;;;;22.75;22.50;;;;;15.30;41.82;102233.88;2047292;28;47932;-62
2022/03/22 04:19:36;;;;;;;;;23.00;21.75;;;;;15.31;41.83;102226.75;2048899;28;47088;-62
2022/03/22 04:20:37;;;;;;;;;23.80;22.80;;;;;15.30;41.89;102227.66;2054353;28;47525;-60
2022/03/22 04:21:39;;;;;;;;;24.60;23.40;;;;;15.29;41.53;102232.13;2050296;28;47788;-62
2022/03/22 04:22:39;;;;;;;;;19.40;18.80;;;;;15.28;41.82;102227.69;2047809;28;47708;-60
2022/03/22 04:23:40;;;;;;;;;21.75;21.25;;;;;15.27;41.94;102231.28;2076900;28;47561;-62
2022/03/22 04:24:41;;;;;;;;;23.00;21.00;;;;;15.26;41.57;102229.50;2070731;28;47977;-61
2022/03/22 04:25:42;;;;;;;;;22.20;22.00;;;;;15.23;41.53;102226.88;2071212;28;47569;-61
2022/03/22 04:26:44;;;;;;;;;19.60;19.00;;;;;15.21;41.52;102227.81;2079696;28;47887;-61
2022/03/22 04:33:01;;;;;;;;;23.40;22.60;;;;;15.05;41.98;102232.53;2069370;28;47736;-61
2022/03/22 04:34:02;;;;;;;;;23.75;23.75;;;;;15.03;42.00;102229.00;2071511;28;47682;-61
2022/03/22 04:35:03;;;;;;;;;23.75;23.75;;;;;15.03;41.83;102231.69;2071621;28;48222;-59
2022/03/22 04:36:04;;;;;;;;;18.60;17.00;;;;;15.02;41.96;102228.13;2071593;28;47876;-60
2022/03/22 04:37:06;;;;;;;;;24.80;24.00;;;;;15.03;42.10;102234.34;2078307;28;47550;-61
2022/03/22 04:38:07;;;;;;;;;21.60;21.60;;;;;15.02;42.02;102228.13;2088952;28;48045;-61
2022/03/22 04:39:07;;;;;;;;;21.75;20.75;;;;;15.03;42.17;102223.66;2095684;28;47673;-61
2022/03/22 04:40:08;;;;;;;;;23.25;22.25;;;;;15.02;41.92;102229.91;2092983;28;45232;-61
2022/03/22 04:41:08;;;;;;;;;29.00;24.75;;;;;15.04;42.14;102241.47;2087228;28;47312;-60
2022/03/22 04:42:10;;;;;;;;;22.00;22.00;;;;;15.03;42.09;102237.03;2088630;28;47521;-60
2022/03/22 04:43:11;;;;;;;;;20.20;20.20;;;;;15.00;42.26;102237.97;2088777;28;47837;-60
2022/03/22 04:44:11;;;;;;;;;24.75;23.25;;;;;14.99;42.14;102235.28;2088794;28;47241;-60
2022/03/22 04:45:12;;;;;;;;;22.50;21.00;;;;;14.96;41.72;102233.56;2089043;28;48357;-61
2022/03/22 04:46:18;;;;;;;;;24.00;22.25;;;;;14.94;42.09;102239.84;2089056;28;47609;-62
2022/03/22 04:47:19;;;;;;;;;22.80;22.80;;;;;14.92;41.95;102238.97;2088929;28;48084;-60
2022/03/22 04:48:19;;;;;;;;;25.20;24.00;;;;;14.90;42.16;102230.09;2088705;28;48236;-61
2022/03/22 04:49:20;;;;;;;;;21.50;21.50;;;;;14.88;42.17;102230.13;2088960;28;47822;-60
2022/03/22 04:50:21;;;;;;;;;23.60;23.20;;;;;14.88;42.20;102242.63;2088300;28;47867;-60
2022/03/22 04:57:45;;;;;;;;;24.20;23.80;;;;;14.86;42.47;102241.72;2088848;28;47820;-61
2022/03/22 04:58:48;;;;;;;;;21.25;19.25;;;;;14.87;42.17;102241.75;2088629;28;48104;-61
2022/03/22 04:59:49;;;;;;;;;22.20;21.20;;;;;14.87;42.26;102241.75;2081371;28;47686;-61
2022/03/22 05:00:49;;;;;;;;;23.75;21.75;;;;;14.87;42.58;102243.53;2083340;28;47531;-60
2022/03/22 05:01:53;;;;;;;;;20.75;19.50;;;;;14.85;42.19;102248.88;2089397;28;47560;-60